Time;durP1;ratioP1;P1;durP2;ratioP2;P2;SDS_P1;SDS_P2;PMS_P1;PMS_P2;Temp;Humidity;BMP_temperature;BMP_pressure;BME280_temperature;BME280_humidity;BME280_pressure;Samples;Min_cycle;Max_cycle;Signal;HPM_P1;HPM_P2
2021/03/23 00:00:58;;;;;;;12.33;9.13;;;6.40;99.90;;;;;;5053794;28;20442;-64
2021/03/23 00:03:27;;;;;;;15.20;8.80;;;6.40;99.90;;;;;;5053175;28;20451;-64
2021/03/23 00:05:54;;;;;;;12.67;8.77;;;6.40;99.90;;;;;;5053104;28;20500;-63
2021/03/23 00:08:24;;;;;;;13.53;10.00;;;6.50;99.90;;;;;;5054700;28;20525;-63
2021/03/23 00:10:50;;;;;;;15.73;9.50;;;6.50;99.90;;;;;;5073364;28;20437;-64
2021/03/23 00:13:17;;;;;;;14.03;9.80;;;6.50;99.90;;;;;;5072855;28;20446;-64
2021/03/23 00:15:43;;;;;;;9.87;8.73;;;6.50;99.90;;;;;;5073072;28;20533;-64
2021/03/23 00:18:10;;;;;;;11.97;8.40;;;6.50;99.90;;;;;;5072971;28;20450;-64
2021/03/23 00:20:36;;;;;;;13.60;10.00;;;6.50;99.90;;;;;;5072673;28;20835;-64
2021/03/23 00:23:02;;;;;;;15.37;9.00;;;6.50;99.90;;;;;;5072605;28;20486;-64
2021/03/23 00:25:29;;;;;;;14.70;9.60;;;6.50;99.90;;;;;;5072844;28;20458;-64
2021/03/23 00:27:55;;;;;;;12.00;9.53;;;6.50;99.90;;;;;;5074771;28;20454;-65
2021/03/23 00:30:22;;;;;;;12.23;9.20;;;6.50;99.90;;;;;;5076758;28;20470;-65
2021/03/23 00:32:48;;;;;;;13.07;9.10;;;6.40;99.90;;;;;;5076815;28;20461;-65
2021/03/23 00:35:15;;;;;;;11.00;8.57;;;6.40;99.90;;;;;;5076573;28;20507;-64
2021/03/23 00:37:42;;;;;;;16.70;10.30;;;6.40;99.90;;;;;;5076649;28;20859;-64
2021/03/23 00:40:12;;;;;;;14.43;9.70;;;6.40;99.90;;;;;;5076341;28;20504;-65
2021/03/23 00:42:39;;;;;;;12.77;9.03;;;6.40;99.90;;;;;;5076402;28;20523;-64
2021/03/23 00:45:07;;;;;;;18.10;9.73;;;6.40;99.90;;;;;;5076537;28;20544;-65
2021/03/23 00:47:33;;;;;;;14.80;9.40;;;6.40;99.90;;;;;;5076386;28;20458;-64
2021/03/23 00:49:59;;;;;;;12.93;10.10;;;6.40;99.90;;;;;;5076155;28;20831;-64
2021/03/23 00:52:26;;;;;;;12.10;9.60;;;6.30;99.90;;;;;;5076223;28;20462;-64
2021/03/23 00:54:53;;;;;;;15.60;9.60;;;6.30;99.90;;;;;;5076603;28;20461;-64
2021/03/23 00:57:19;;;;;;;13.77;9.30;;;6.30;99.90;;;;;;5076379;28;20442;-64
2021/03/23 00:59:46;;;;;;;11.60;9.13;;;6.30;99.90;;;;;;5076020;28;20535;-64
2021/03/23 01:02:12;;;;;;;16.50;10.50;;;6.40;99.90;;;;;;5076234;28;20478;-65
2021/03/23 01:04:38;;;;;;;13.30;10.00;;;6.40;99.90;;;;;;5076011;28;20500;-63
2021/03/23 01:07:05;;;;;;;17.13;11.20;;;6.50;99.90;;;;;;5075885;28;20959;-64
2021/03/23 01:09:31;;;;;;;14.03;10.93;;;6.40;99.90;;;;;;5075771;28;20873;-64
2021/03/23 01:11:57;;;;;;;14.80;10.93;;;6.40;99.90;;;;;;5075519;28;20604;-64
2021/03/23 01:14:24;;;;;;;16.87;10.93;;;6.30;99.90;;;;;;5075826;28;20454;-63
2021/03/23 01:16:51;;;;;;;16.73;11.80;;;6.20;99.90;;;;;;5075716;28;20866;-63
2021/03/23 01:19:17;;;;;;;21.20;11.60;;;6.20;99.90;;;;;;5075569;28;20477;-63
2021/03/23 01:21:43;;;;;;;17.90;12.97;;;6.20;99.90;;;;;;5075620;28;21057;-63
2021/03/23 01:24:09;;;;;;;17.90;13.03;;;6.20;99.90;;;;;;5075951;28;20458;-64
2021/03/23 01:26:36;;;;;;;21.07;13.50;;;6.30;99.90;;;;;;5075633;28;20465;-65
2021/03/23 01:29:02;;;;;;;18.20;12.70;;;6.30;99.90;;;;;;5075513;28;20470;-65
2021/03/23 01:31:28;;;;;;;15.00;11.67;;;6.30;99.90;;;;;;5075630;28;20454;-65
2021/03/23 01:33:55;;;;;;;19.67;11.70;;;6.30;99.90;;;;;;5075533;28;20450;-65
2021/03/23 01:36:21;;;;;;;18.37;12.97;;;6.30;99.90;;;;;;5075514;28;20450;-65
2021/03/23 01:38:48;;;;;;;16.80;12.00;;;6.30;99.90;;;;;;5074529;28;20504;-65
2021/03/23 01:41:14;;;;;;;19.40;12.10;;;6.30;99.90;;;;;;5074983;28;21018;-64
2021/03/23 01:43:40;;;;;;;19.83;12.63;;;6.30;99.90;;;;;;5075361;28;20462;-65
2021/03/23 01:46:39;;;;;;;17.00;11.77;;;6.30;99.90;;;;;;5075013;28;21004;-65
2021/03/23 01:49:09;;;;;;;18.37;12.73;;;6.30;99.90;;;;;;5075354;28;20477;-64
2021/03/23 01:51:36;;;;;;;16.73;12.67;;;6.30;99.90;;;;;;5075446;28;20437;-64
2021/03/23 01:54:08;;;;;;;23.17;14.40;;;6.30;99.90;;;;;;5075051;28;20457;-64
2021/03/23 01:56:34;;;;;;;18.50;13.50;;;6.20;99.90;;;;;;5075142;28;20488;-64
2021/03/23 01:59:02;;;;;;;19.03;13.40;;;6.20;99.90;;;;;;5075232;28;20497;-64
2021/03/23 02:01:30;;;;;;;26.10;14.10;;;6.20;99.90;;;;;;5074905;28;20474;-64
2021/03/23 02:03:57;;;;;;;21.43;13.63;;;6.20;99.90;;;;;;5075190;28;20461;-64
2021/03/23 02:06:38;;;;;;;20.87;13.50;;;6.30;99.90;;;;;;5075012;28;20819;-64
2021/03/23 02:09:06;;;;;;;19.53;15.30;;;6.20;99.90;;;;;;5074714;28;20477;-64
2021/03/23 02:11:37;;;;;;;18.70;13.37;;;6.20;99.90;;;;;;5074956;28;20450;-64
2021/03/23 02:14:04;;;;;;;19.90;14.20;;;6.20;99.90;;;;;;5074916;28;20435;-64
2021/03/23 02:16:30;;;;;;;22.47;15.47;;;6.20;99.90;;;;;;5075082;28;20454;-64
2021/03/23 02:18:56;;;;;;;20.97;15.70;;;6.20;99.90;;;;;;5075314;28;20473;-63
2021/03/23 02:21:23;;;;;;;21.00;14.50;;;6.20;99.90;;;;;;5075224;28;20990;-65
2021/03/23 02:23:51;;;;;;;23.20;16.20;;;6.20;99.90;;;;;;5074848;28;20450;-64
2021/03/23 02:26:20;;;;;;;21.67;15.50;;;6.20;99.90;;;;;;5074548;28;20504;-65
2021/03/23 02:28:54;;;;;;;22.27;16.90;;;6.20;99.90;;;;;;5074270;28;20474;-63
2021/03/23 02:31:23;;;;;;;22.83;16.27;;;6.20;99.90;;;;;;5074081;28;20908;-64
2021/03/23 02:33:50;;;;;;;26.43;16.50;;;6.20;99.90;;;;;;5074551;28;20461;-64
2021/03/23 02:36:16;;;;;;;20.33;16.20;;;6.20;99.90;;;;;;5074334;28;20458;-64
2021/03/23 02:38:43;;;;;;;22.33;15.37;;;6.30;99.90;;;;;;5074169;28;20595;-64
2021/03/23 02:41:10;;;;;;;19.93;15.20;;;6.30;99.90;;;;;;5074245;28;20439;-64
2021/03/23 02:43:36;;;;;;;25.63;15.40;;;6.30;99.90;;;;;;5074186;28;20461;-65
2021/03/23 02:46:03;;;;;;;23.50;15.20;;;6.30;99.90;;;;;;5074014;28;20971;-65
2021/03/23 02:48:29;;;;;;;22.63;15.17;;;6.30;99.90;;;;;;5073858;28;20464;-65
2021/03/23 02:50:55;;;;;;;22.70;15.90;;;6.20;99.90;;;;;;5073826;28;20469;-64
2021/03/23 02:53:22;;;;;;;21.10;14.57;;;6.20;99.90;;;;;;5073963;28;20450;-65
2021/03/23 02:55:49;;;;;;;19.60;13.97;;;6.20;99.90;;;;;;5074133;28;20460;-64
2021/03/23 02:58:16;;;;;;;18.23;14.77;;;6.20;99.90;;;;;;5073683;28;20461;-64
2021/03/23 03:00:43;;;;;;;22.40;14.03;;;6.20;99.90;;;;;;5073866;28;20439;-64
2021/03/23 03:03:10;;;;;;;22.40;14.47;;;6.20;99.90;;;;;;5073498;28;20477;-64
2021/03/23 03:05:36;;;;;;;21.80;15.43;;;6.30;99.90;;;;;;5073399;28;20450;-64
2021/03/23 03:08:02;;;;;;;19.63;14.30;;;6.30;99.90;;;;;;5073594;28;20456;-65
2021/03/23 03:10:28;;;;;;;25.67;15.27;;;6.30;99.90;;;;;;5073183;28;20474;-64
2021/03/23 03:12:57;;;;;;;21.90;14.10;;;6.30;99.90;;;;;;5073904;28;20457;-65
2021/03/23 03:15:23;;;;;;;22.47;14.40;;;6.40;99.90;;;;;;5073616;28;20461;-65
2021/03/23 03:17:50;;;;;;;23.07;14.73;;;6.40;99.90;;;;;;5073556;28;20511;-65
2021/03/23 03:20:18;;;;;;;19.20;12.77;;;6.40;99.90;;;;;;5073416;28;20474;-65
2021/03/23 03:22:44;;;;;;;20.00;14.20;;;6.30;99.90;;;;;;5073215;28;20477;-65
2021/03/23 03:25:12;;;;;;;22.00;15.03;;;6.30;99.90;;;;;;5073518;28;20480;-64
2021/03/23 03:27:38;;;;;;;23.67;13.70;;;6.30;99.90;;;;;;5073417;28;20458;-63
2021/03/23 03:30:16;;;;;;;19.00;13.63;;;6.30;99.90;;;;;;5074100;28;20474;-64
2021/03/23 03:32:42;;;;;;;21.50;14.50;;;6.30;99.90;;;;;;5073385;28;20881;-64
2021/03/23 03:35:10;;;;;;;16.67;13.00;;;6.30;99.90;;;;;;5082268;28;20477;-64
2021/03/23 03:37:36;;;;;;;26.93;14.47;;;6.20;99.90;;;;;;5087488;28;20446;-64
2021/03/23 03:40:06;;;;;;;22.53;14.53;;;6.20;99.90;;;;;;5091756;28;20470;-64
2021/03/23 03:42:32;;;;;;;20.30;14.30;;;6.20;99.90;;;;;;5091553;28;20462;-64
2021/03/23 03:44:59;;;;;;;18.40;12.70;;;6.20;99.90;;;;;;5088200;28;20457;-64
2021/03/23 03:47:26;;;;;;;16.40;12.90;;;6.20;99.90;;;;;;5080960;28;20454;-64
2021/03/23 03:49:52;;;;;;;26.07;14.70;;;6.10;99.90;;;;;;5073435;28;20474;-64
2021/03/23 03:52:18;;;;;;;22.33;14.10;;;6.20;99.90;;;;;;5073482;28;20450;-65
2021/03/23 03:54:44;;;;;;;23.93;14.20;;;6.20;99.90;;;;;;5073393;28;20458;-65
2021/03/23 03:57:11;;;;;;;20.07;13.27;;;6.10;99.90;;;;;;5073052;28;20457;-65
2021/03/23 03:59:37;;;;;;;18.40;13.47;;;6.20;99.90;;;;;;5073436;28;20482;-65
2021/03/23 04:02:03;;;;;;;18.20;12.40;;;6.20;99.90;;;;;;5073837;28;20996;-64
2021/03/23 04:04:30;;;;;;;22.00;14.07;;;6.20;99.90;;;;;;5077266;28;21020;-64
2021/03/23 04:06:56;;;;;;;20.87;14.23;;;6.20;99.90;;;;;;5077028;28;20454;-64
2021/03/23 04:09:23;;;;;;;20.97;14.10;;;6.20;99.90;;;;;;5077268;28;20469;-64
2021/03/23 04:11:49;;;;;;;18.60;12.87;;;6.20;99.90;;;;;;5076781;28;20947;-64
2021/03/23 04:14:15;;;;;;;23.87;15.30;;;6.30;99.90;;;;;;5076726;28;20975;-64
2021/03/23 04:16:41;;;;;;;18.33;14.03;;;6.20;99.90;;;;;;5076955;28;20457;-64
2021/03/23 04:19:07;;;;;;;26.77;15.70;;;6.20;99.90;;;;;;5076476;28;21065;-64
2021/03/23 04:21:35;;;;;;;25.27;15.27;;;6.20;99.90;;;;;;5076780;28;20481;-64
2021/03/23 04:24:01;;;;;;;19.93;14.37;;;6.20;99.90;;;;;;5076753;28;20536;-64
2021/03/23 04:26:27;;;;;;;24.13;14.20;;;6.20;99.90;;;;;;5076623;28;20454;-64
2021/03/23 04:28:53;;;;;;;26.20;15.40;;;6.20;99.90;;;;;;5076599;28;20469;-64
2021/03/23 04:31:31;;;;;;;26.10;14.40;;;6.20;99.90;;;;;;5076241;28;20955;-64
2021/03/23 04:33:57;;;;;;;24.37;14.20;;;6.10;99.90;;;;;;5076571;28;20442;-64
2021/03/23 04:36:24;;;;;;;20.63;15.23;;;6.10;99.90;;;;;;5076219;28;20457;-65
2021/03/23 04:38:51;;;;;;;18.57;14.33;;;6.20;99.90;;;;;;5076366;28;20480;-64
2021/03/23 04:41:17;;;;;;;25.33;15.17;;;6.10;99.90;;;;;;5076288;28;20508;-65
2021/03/23 04:43:45;;;;;;;26.83;17.13;;;6.20;99.90;;;;;;5076014;28;20450;-65
2021/03/23 04:46:13;;;;;;;23.97;14.97;;;6.20;99.90;;;;;;5076234;28;20912;-64
2021/03/23 04:48:39;;;;;;;26.00;15.50;;;6.20;99.90;;;;;;5076020;28;20477;-64
2021/03/23 04:51:08;;;;;;;19.83;14.83;;;6.20;99.90;;;;;;5076440;28;20453;-64
2021/03/23 04:53:36;;;;;;;23.10;15.63;;;6.20;99.90;;;;;;5076226;28;20450;-65
2021/03/23 04:56:05;;;;;;;29.63;15.73;;;6.20;99.90;;;;;;5076003;28;20483;-64
2021/03/23 04:58:31;;;;;;;25.97;16.10;;;6.30;99.90;;;;;;5075866;28;20489;-65
2021/03/23 05:00:59;;;;;;;28.20;16.33;;;6.20;99.90;;;;;;5076110;28;20445;-63
2021/03/23 05:03:28;;;;;;;22.60;15.70;;;6.20;99.90;;;;;;5076187;28;20481;-63
2021/03/23 05:05:54;;;;;;;26.20;15.67;;;6.20;99.90;;;;;;5076678;28;20454;-65
2021/03/23 05:08:20;;;;;;;24.13;15.73;;;6.20;99.90;;;;;;5076090;28;20450;-64
2021/03/23 05:10:47;;;;;;;23.47;15.57;;;6.20;99.90;;;;;;5075810;28;20949;-64
2021/03/23 05:13:14;;;;;;;24.40;15.63;;;6.20;99.90;;;;;;5075586;28;20446;-65
2021/03/23 05:15:40;;;;;;;23.20;15.63;;;6.20;99.90;;;;;;5075242;28;20461;-63
2021/03/23 05:18:06;;;;;;;27.07;16.37;;;6.30;99.90;;;;;;5076467;28;20465;-63
2021/03/23 05:20:32;;;;;;;26.07;16.57;;;6.30;99.90;;;;;;5076826;28;20470;-65
2021/03/23 05:22:58;;;;;;;21.93;15.00;;;6.30;99.90;;;;;;5076750;28;20477;-65
2021/03/23 05:25:25;;;;;;;23.27;16.07;;;6.30;99.90;;;;;;5076727;28;20454;-65
2021/03/23 05:27:51;;;;;;;20.60;15.37;;;6.30;99.90;;;;;;5077002;28;20595;-65
2021/03/23 05:30:20;;;;;;;23.07;16.37;;;6.40;99.90;;;;;;5076564;28;20470;-65
2021/03/23 05:32:46;;;;;;;26.50;17.23;;;6.40;99.90;;;;;;5076149;28;20979;-66
2021/03/23 05:35:14;;;;;;;24.80;16.93;;;6.40;99.90;;;;;;5076648;28;20450;-66
2021/03/23 05:37:40;;;;;;;26.63;17.43;;;6.40;99.90;;;;;;5076477;28;20449;-65
2021/03/23 05:40:08;;;;;;;24.00;16.53;;;6.30;99.90;;;;;;5076429;28;20474;-65
2021/03/23 05:42:39;;;;;;;20.97;15.80;;;6.20;99.90;;;;;;5076376;28;20505;-65
2021/03/23 05:45:15;;;;;;;24.80;17.47;;;6.30;99.90;;;;;;5076504;28;20434;-64
2021/03/23 05:47:43;;;;;;;22.33;15.60;;;6.30;99.90;;;;;;5076521;28;20445;-66
2021/03/23 05:50:21;;;;;;;24.57;16.30;;;6.40;99.90;;;;;;5076078;28;20474;-67
2021/03/23 05:52:51;;;;;;;26.17;17.60;;;6.40;99.90;;;;;;5076192;28;20430;-65
2021/03/23 05:55:37;;;;;;;25.50;16.87;;;6.40;99.90;;;;;;5076081;28;20435;-64
2021/03/23 05:58:04;;;;;;;22.73;16.83;;;6.40;99.90;;;;;;5075403;28;20461;-64
2021/03/23 06:00:33;;;;;;;24.93;17.37;;;6.40;99.90;;;;;;5075163;28;20482;-65
2021/03/23 06:03:04;;;;;;;25.40;16.53;;;6.50;99.90;;;;;;5074747;28;20481;-65
2021/03/23 06:05:41;;;;;;;26.63;18.80;;;6.50;99.90;;;;;;5074187;28;20943;-65
2021/03/23 06:08:26;;;;;;;26.70;18.03;;;6.70;99.90;;;;;;5075055;28;20176;-66
2021/03/23 06:11:21;;;;;;;25.03;15.97;;;7.10;99.90;;;;;;5074911;28;20497;-67
2021/03/23 06:13:53;;;;;;;24.50;17.10;;;7.30;99.90;;;;;;5074884;28;20449;-65
2021/03/23 06:16:32;;;;;;;27.63;18.57;;;7.40;99.90;;;;;;5074796;28;20469;-64
2021/03/23 06:19:07;;;;;;;26.73;17.40;;;7.40;99.90;;;;;;5074898;28;20560;-64
2021/03/23 06:21:42;;;;;;;21.80;18.27;;;7.50;99.90;;;;;;5074606;28;20434;-64
2021/03/23 06:24:18;;;;;;;28.20;19.43;;;7.40;99.90;;;;;;5074970;28;20434;-64
2021/03/23 06:26:51;;;;;;;26.23;17.83;;;7.30;99.90;;;;;;5074533;28;20445;-64
2021/03/23 06:29:35;;;;;;;29.03;18.13;;;7.30;99.90;;;;;;5074501;28;20850;-64
2021/03/23 06:32:39;;;;;;;23.80;18.20;;;7.20;99.90;;;;;;5074879;28;20441;-64
2021/03/23 06:35:11;;;;;;;23.27;17.23;;;7.20;99.90;;;;;;5027080;28;20852;-63
2021/03/23 06:37:39;;;;;;;28.20;19.60;;;7.10;99.90;;;;;;5074758;28;20442;-63
2021/03/23 06:40:13;;;;;;;26.40;18.03;;;7.00;99.90;;;;;;5074443;28;20477;-64
2021/03/23 06:42:41;;;;;;;29.67;19.30;;;7.00;99.90;;;;;;5074483;28;20462;-64
2021/03/23 06:45:31;;;;;;;30.17;19.23;;;7.00;99.90;;;;;;5074202;28;20473;-64
2021/03/23 06:48:18;;;;;;;28.17;18.60;;;7.00;99.90;;;;;;5073794;28;20901;-64
2021/03/23 06:50:46;;;;;;;29.13;19.70;;;6.90;99.90;;;;;;5073659;28;20931;-64
2021/03/23 06:53:14;;;;;;;25.10;18.00;;;6.90;99.90;;;;;;5074844;28;20442;-64
2021/03/23 06:55:42;;;;;;;24.70;17.80;;;7.00;99.90;;;;;;5074256;28;20795;-64
2021/03/23 06:58:30;;;;;;;24.77;16.70;;;7.10;99.90;;;;;;5073874;28;20458;-64
2021/03/23 07:01:14;;;;;;;25.67;17.67;;;7.20;99.90;;;;;;5074136;28;20442;-64
2021/03/23 07:03:42;;;;;;;24.80;17.00;;;7.10;99.90;;;;;;5074056;28;20474;-64
2021/03/23 07:06:19;;;;;;;25.93;16.90;;;7.20;99.90;;;;;;5074282;28;20549;-64
2021/03/23 07:09:03;;;;;;;27.70;18.90;;;7.20;99.90;;;;;;5073935;28;20470;-64
2021/03/23 07:11:53;;;;;;;32.03;19.00;;;7.00;99.90;;;;;;5073956;28;20438;-64
2021/03/23 07:14:25;;;;;;;23.90;17.07;;;7.10;99.90;;;;;;5074011;28;20874;-64
2021/03/23 07:17:00;;;;;;;24.77;18.20;;;7.20;99.90;;;;;;5074196;28;20550;-64
2021/03/23 07:19:27;;;;;;;31.23;20.70;;;7.30;99.90;;;;;;5073877;28;20544;-64
2021/03/23 07:22:01;;;;;;;38.03;20.87;;;7.40;99.90;;;;;;5073769;28;20473;-64
2021/03/23 07:24:31;;;;;;;28.87;19.00;;;7.40;99.90;;;;;;5074783;28;20440;-64
2021/03/23 07:27:03;;;;;;;27.57;20.50;;;7.40;99.90;;;;;;5074830;28;20443;-64
2021/03/23 07:29:33;;;;;;;28.50;20.63;;;7.50;99.90;;;;;;5073782;28;20473;-64
2021/03/23 07:32:14;;;;;;;28.80;20.77;;;7.60;99.90;;;;;;5073916;28;20450;-64
2021/03/23 07:35:01;;;;;;;31.47;19.77;;;7.40;99.90;;;;;;5073820;28;20434;-64
2021/03/23 07:37:38;;;;;;;28.23;19.87;;;7.50;99.90;;;;;;5072988;28;20469;-65
2021/03/23 07:40:13;;;;;;;27.37;18.60;;;7.60;99.90;;;;;;5073542;28;20847;-65
2021/03/23 07:42:44;;;;;;;27.27;18.40;;;8.10;99.90;;;;;;5073673;28;20454;-65
2021/03/23 07:45:21;;;;;;;29.70;17.00;;;8.30;99.90;;;;;;5073995;28;20435;-65
2021/03/23 07:47:53;;;;;;;25.80;18.10;;;8.20;99.90;;;;;;5074166;28;20932;-65
2021/03/23 07:50:25;;;;;;;28.23;17.93;;;8.60;99.90;;;;;;5073507;28;20917;-64
2021/03/23 07:52:55;;;;;;;26.20;18.33;;;8.70;99.90;;;;;;5073720;28;20434;-64
2021/03/23 07:55:25;;;;;;;26.07;18.77;;;8.50;99.90;;;;;;5073614;28;20825;-65
2021/03/23 07:58:09;;;;;;;25.37;19.63;;;8.60;99.90;;;;;;5073539;28;20505;-64
2021/03/23 08:00:59;;;;;;;29.60;18.90;;;8.60;99.90;;;;;;5073417;28;20481;-64
2021/03/23 08:03:58;;;;;;;26.73;19.20;;;8.50;99.90;;;;;;5073786;28;20619;-65
2021/03/23 08:06:28;;;;;;;29.83;20.17;;;8.60;99.90;;;;;;5075376;28;20836;-65
2021/03/23 08:09:39;;;;;;;29.80;19.80;;;8.50;99.90;;;;;;5074504;28;20477;-63
2021/03/23 08:12:34;;;;;;;38.17;21.77;;;8.50;99.90;;;;;;5073916;28;20446;-64
2021/03/23 08:15:15;;;;;;;29.83;20.80;;;8.40;99.90;;;;;;5074004;28;20457;-64
2021/03/23 08:18:25;;;;;;;31.33;19.80;;;8.10;99.90;;;;;;5073878;28;20439;-65
2021/03/23 08:21:23;;;;;;;28.77;20.57;;;8.00;99.90;;;;;;5073591;28;20473;-65
2021/03/23 08:24:01;;;;;;;29.73;19.97;;;8.10;99.90;;;;;;5073477;28;20493;-65
2021/03/23 08:26:50;;;;;;;32.43;19.40;;;8.10;99.90;;;;;;5073181;28;20985;-64
2021/03/23 08:29:20;;;;;;;26.03;19.70;;;8.30;99.90;;;;;;5073354;28;20481;-65
2021/03/23 08:32:07;;;;;;;35.73;21.63;;;8.30;99.90;;;;;;5073525;28;20442;-65
2021/03/23 08:34:53;;;;;;;29.90;20.60;;;8.50;99.90;;;;;;5073373;28;20442;-67
2021/03/23 08:37:49;;;;;;;32.53;19.60;;;8.50;99.90;;;;;;5073689;28;20457;-64
2021/03/23 08:40:25;;;;;;;28.70;19.87;;;8.40;99.90;;;;;;5056493;28;20580;-64
2021/03/23 08:42:53;;;;;;;33.20;21.73;;;8.20;99.90;;;;;;5073110;28;20963;-64
2021/03/23 08:45:23;;;;;;;31.20;19.87;;;8.40;99.90;;;;;;5073170;28;20458;-65
2021/03/23 08:47:53;;;;;;;26.90;20.30;;;8.40;99.90;;;;;;5074066;28;20452;-64
2021/03/23 08:50:23;;;;;;;30.03;20.87;;;8.60;99.90;;;;;;5076953;28;20470;-65
2021/03/23 08:52:52;;;;;;;37.13;20.97;;;8.70;99.90;;;;;;5076802;28;20438;-66
2021/03/23 08:55:45;;;;;;;29.07;20.60;;;8.70;99.90;;;;;;5076661;28;20541;-64
2021/03/23 08:58:15;;;;;;;37.57;20.70;;;8.90;99.90;;;;;;5076514;28;20440;-65
2021/03/23 09:01:00;;;;;;;29.37;19.57;;;9.10;99.90;;;;;;5077059;28;20764;-65
2021/03/23 09:03:46;;;;;;;22.77;17.93;;;9.20;99.90;;;;;;5076643;28;20484;-65
2021/03/23 09:06:15;;;;;;;29.20;19.63;;;9.30;99.90;;;;;;5076854;28;20650;-66
2021/03/23 09:08:51;;;;;;;32.53;20.37;;;9.30;99.90;;;;;;5076553;28;20470;-66
2021/03/23 09:11:47;;;;;;;26.30;16.97;;;9.30;99.90;;;;;;5076142;28;20476;-65
2021/03/23 09:14:22;;;;;;;23.90;16.60;;;9.30;99.90;;;;;;5076122;28;20454;-65
2021/03/23 09:17:14;;;;;;;38.07;17.67;;;9.50;99.90;;;;;;5076572;28;20434;-65
2021/03/23 09:19:48;;;;;;;25.70;15.97;;;9.40;99.90;;;;;;5076301;28;20553;-64
2021/03/23 09:22:47;;;;;;;20.03;14.80;;;9.50;99.90;;;;;;5076483;28;20465;-65
2021/03/23 09:25:47;;;;;;;18.03;14.57;;;9.30;99.90;;;;;;5076274;28;20438;-65
2021/03/23 09:28:52;;;;;;;22.90;15.40;;;9.30;99.90;;;;;;5075817;28;20434;-65
2021/03/23 09:31:42;;;;;;;22.50;14.93;;;9.40;99.90;;;;;;5077715;28;20477;-64
2021/03/23 09:34:41;;;;;;;26.23;16.93;;;9.40;99.90;;;;;;5090845;28;20451;-65
2021/03/23 09:37:29;;;;;;;20.43;15.40;;;9.60;99.90;;;;;;5076989;28;20450;-65
2021/03/23 09:39:55;;;;;;;20.67;15.43;;;9.90;99.90;;;;;;5076193;28;20466;-65
2021/03/23 09:42:34;;;;;;;21.93;15.53;;;10.20;99.90;;;;;;5075868;28;20474;-65
2021/03/23 09:45:23;;;;;;;18.47;15.27;;;10.30;99.90;;;;;;5076255;28;20438;-65
2021/03/23 09:47:54;;;;;;;17.97;14.90;;;10.30;99.90;;;;;;5075623;28;20477;-65
2021/03/23 09:50:28;;;;;;;20.93;13.60;;;10.50;99.90;;;;;;5075498;28;20508;-65
2021/03/23 09:53:36;;;;;;;22.48;18.17;;;10.80;99.90;;;;;;5111149;27;20892;-64
2021/03/23 09:56:05;;;;;;;20.50;16.57;;;10.70;99.90;;;;;;5111778;28;20193;-64
2021/03/23 09:58:31;;;;;;;23.23;15.33;;;10.70;99.90;;;;;;5115233;28;20463;-65
2021/03/23 10:01:10;;;;;;;20.40;15.80;;;10.90;99.90;;;;;;5116934;28;20460;-64
2021/03/23 10:03:38;;;;;;;21.50;16.47;;;11.00;99.90;;;;;;5121307;28;20459;-64
2021/03/23 10:06:06;;;;;;;22.13;16.10;;;10.90;99.90;;;;;;5121593;28;20536;-64
2021/03/23 10:08:35;;;;;;;20.97;15.90;;;10.80;99.90;;;;;;5112472;28;20482;-64
2021/03/23 10:11:09;;;;;;;20.43;15.00;;;10.70;99.90;;;;;;5111547;28;20539;-64
2021/03/23 10:13:35;;;;;;;21.13;14.90;;;10.70;99.90;;;;;;5112136;28;20448;-64
2021/03/23 10:16:07;;;;;;;23.53;14.40;;;10.50;99.90;;;;;;5113016;28;20448;-64
2021/03/23 10:18:38;;;;;;;21.60;14.97;;;10.40;99.90;;;;;;5111547;28;20468;-64
2021/03/23 10:21:07;;;;;;;17.10;14.30;;;10.40;99.90;;;;;;5111253;28;20436;-65
2021/03/23 10:23:42;;;;;;;16.10;13.03;;;10.30;99.90;;;;;;5111001;28;20453;-65
2021/03/23 10:26:08;;;;;;;17.03;12.47;;;10.30;99.90;;;;;;5111386;28;20472;-65
2021/03/23 10:28:37;;;;;;;16.17;13.00;;;10.30;99.90;;;;;;5111022;28;20504;-64
2021/03/23 10:31:06;;;;;;;14.90;12.60;;;10.10;99.90;;;;;;5110250;28;20947;-64
2021/03/23 10:33:35;;;;;;;18.30;13.33;;;9.90;99.90;;;;;;5110606;28;20510;-64
2021/03/23 10:36:04;;;;;;;19.37;14.60;;;10.00;99.90;;;;;;5110586;28;20475;-64
2021/03/23 10:38:38;;;;;;;17.33;13.20;;;10.20;99.90;;;;;;5110272;28;20455;-64
2021/03/23 10:41:27;;;;;;;16.13;12.13;;;10.20;99.90;;;;;;5110241;28;20972;-65
2021/03/23 10:44:11;;;;;;;15.80;11.30;;;10.10;99.90;;;;;;5110602;28;20811;-65
2021/03/23 10:46:41;;;;;;;14.17;12.00;;;10.00;99.90;;;;;;5110580;28;20436;-64
2021/03/23 10:49:27;;;;;;;15.70;12.63;;;10.10;99.90;;;;;;5110406;28;20479;-64
2021/03/23 10:51:56;;;;;;;16.80;12.93;;;10.00;99.90;;;;;;5109908;28;20472;-64
2021/03/23 10:54:26;;;;;;;17.97;11.37;;;10.00;99.90;;;;;;5110501;28;20488;-65
2021/03/23 10:56:54;;;;;;;12.23;10.43;;;10.00;99.90;;;;;;5110509;28;20459;-65
2021/03/23 10:59:33;;;;;;;13.60;10.13;;;10.00;99.90;;;;;;5109762;28;20995;-65
2021/03/23 11:02:06;;;;;;;8.93;7.70;;;9.90;99.90;;;;;;5110594;28;20498;-65
2021/03/23 11:04:36;;;;;;;11.07;9.90;;;10.00;99.90;;;;;;5098028;28;20442;-65
2021/03/23 11:07:20;;;;;;;15.70;12.07;;;10.00;99.90;;;;;;5096409;28;20524;-65
2021/03/23 11:09:50;;;;;;;14.00;10.27;;;10.10;99.90;;;;;;5096257;28;20556;-65
2021/03/23 11:12:16;;;;;;;14.07;11.47;;;10.00;99.90;;;;;;5096226;28;20477;-65
2021/03/23 11:14:42;;;;;;;20.33;13.70;;;10.00;99.90;;;;;;5096347;28;20438;-64
2021/03/23 11:17:12;;;;;;;19.73;16.20;;;9.90;99.90;;;;;;5096973;28;20783;-64
2021/03/23 11:19:41;;;;;;;16.00;12.30;;;9.80;99.90;;;;;;5095916;28;20547;-65
2021/03/23 11:22:11;;;;;;;19.73;12.80;;;9.90;99.90;;;;;;5095905;28;20446;-65
2021/03/23 11:24:37;;;;;;;19.60;13.53;;;9.80;99.90;;;;;;5096044;28;20471;-65
2021/03/23 11:27:05;;;;;;;15.37;12.87;;;9.70;99.90;;;;;;5095974;28;20449;-65
2021/03/23 11:29:31;;;;;;;16.27;13.70;;;9.90;99.90;;;;;;5095676;28;20998;-65
2021/03/23 11:31:58;;;;;;;17.87;13.07;;;9.80;99.90;;;;;;5095584;28;20990;-65
2021/03/23 11:34:24;;;;;;;17.80;12.47;;;9.50;99.90;;;;;;5096284;28;20449;-65
2021/03/23 11:36:51;;;;;;;13.13;10.40;;;9.50;99.90;;;;;;5095929;28;20450;-65
2021/03/23 11:39:18;;;;;;;12.67;9.57;;;9.50;99.90;;;;;;5095631;28;20530;-65
2021/03/23 11:41:52;;;;;;;11.30;9.23;;;9.50;99.90;;;;;;5095924;28;20453;-64
2021/03/23 11:44:24;;;;;;;15.40;11.80;;;9.40;99.90;;;;;;5101151;28;20440;-65
2021/03/23 11:46:56;;;;;;;16.97;12.60;;;9.50;99.90;;;;;;5100917;28;20859;-65
2021/03/23 11:49:39;;;;;;;18.00;11.93;;;9.40;99.90;;;;;;5097127;28;20465;-65
2021/03/23 11:52:06;;;;;;;17.23;11.90;;;9.50;99.90;;;;;;5096966;28;20473;-65
2021/03/23 11:54:33;;;;;;;15.33;11.60;;;9.60;99.90;;;;;;5095492;28;20460;-65
2021/03/23 11:57:00;;;;;;;16.00;11.27;;;9.60;99.90;;;;;;5095363;28;20788;-65
2021/03/23 11:59:27;;;;;;;17.73;12.97;;;9.70;99.90;;;;;;5095648;28;20480;-65
2021/03/23 12:01:54;;;;;;;15.63;13.00;;;9.80;99.90;;;;;;5096189;28;20445;-65
2021/03/23 12:04:21;;;;;;;16.23;12.30;;;9.90;99.90;;;;;;5095476;28;20449;-65
2021/03/23 12:06:53;;;;;;;15.07;12.53;;;10.20;99.90;;;;;;5095641;28;20457;-65
2021/03/23 12:09:26;;;;;;;16.60;12.53;;;10.30;99.90;;;;;;5095722;28;20505;-65
2021/03/23 12:11:59;;;;;;;15.43;12.43;;;10.60;99.90;;;;;;5095484;28;20555;-66
2021/03/23 12:14:36;;;;;;;19.43;12.30;;;10.90;99.90;;;;;;5095104;28;20444;-65
2021/03/23 12:17:07;;;;;;;18.47;15.20;;;10.90;99.90;;;;;;5097876;28;20437;-65
2021/03/23 12:19:39;;;;;;;17.37;15.40;;;10.90;99.90;;;;;;5111068;28;20480;-65
2021/03/23 12:22:06;;;;;;;21.73;16.40;;;10.70;99.90;;;;;;5101600;28;20442;-65
2021/03/23 12:24:33;;;;;;;17.07;13.90;;;10.60;99.90;;;;;;5095862;28;20480;-65
2021/03/23 12:27:00;;;;;;;15.60;13.83;;;10.60;99.90;;;;;;5096056;28;20460;-65
2021/03/23 12:29:27;;;;;;;16.17;12.50;;;10.50;99.90;;;;;;5095364;28;20469;-65
2021/03/23 12:31:53;;;;;;;15.43;12.37;;;10.80;99.90;;;;;;5095286;28;20473;-65
2021/03/23 12:34:19;;;;;;;18.13;14.13;;;11.20;99.90;;;;;;5094887;28;20982;-65
2021/03/23 12:36:45;;;;;;;16.00;14.30;;;11.50;99.90;;;;;;5095259;28;20437;-65
2021/03/23 12:39:12;;;;;;;14.63;13.07;;;11.50;99.90;;;;;;5095211;28;20469;-64
2021/03/23 12:41:39;;;;;;;15.00;12.53;;;11.50;99.90;;;;;;5095233;28;20499;-65
2021/03/23 12:44:07;;;;;;;18.07;14.13;;;11.50;99.90;;;;;;5095519;28;20819;-64
2021/03/23 12:46:35;;;;;;;16.00;13.33;;;11.00;99.90;;;;;;5094857;28;20501;-65
2021/03/23 12:49:01;;;;;;;16.13;12.70;;;11.10;99.90;;;;;;5094562;28;20878;-65
2021/03/23 12:51:37;;;;;;;15.80;12.70;;;11.10;99.90;;;;;;5094252;28;20457;-65
2021/03/23 12:54:03;;;;;;;15.70;13.37;;;11.10;99.90;;;;;;5094606;28;20437;-64
2021/03/23 12:56:30;;;;;;;16.20;12.57;;;11.10;99.90;;;;;;5094246;28;20456;-65
2021/03/23 12:58:59;;;;;;;16.70;13.27;;;10.90;99.90;;;;;;5094334;28;20473;-65